Accueil
METAR-TAF:

METAR-TAF

Aéroports :

Aéroport de Sarrebruck

Sarrebruck, Allemagne

latitude: 49-13N, longitude: 007-07E, altitude: 322 m

Observation

Le bulletin a été fait il y a 11 minutes, à 22:50 UTC
Vent 3 kt de nord
Température 17°C
Humidité 77%
Pression 1021 hPa
Visibilité 10 km ou plus

METAR: EDDR 172250Z AUTO 35003KT 9999 // NCD 17/13 Q1021

Heure: 01:01 (23:01 UTC)

Prévision

Le bulletin a été fait il y a 6 heures et 1 minutes, à 17:00 UTC
Prévision valable du 17 à 18 UTC au 18 à 18 UTC
Vent 12 kt de ouest/nord-ouest
Visibilité 10 km ou plus
Quelques nuages à une hauteur de 4000 ft
Evoluant progressivement
du 17 à 19 UTC au 17 à 21 UTC
Vent 5 kt de nord/nord-ouest

TAF: EDDR 171700Z 1718/1818 30012KT 9999 FEW040 BECMG 1719/1721 34005KT

Observations et prévisions météorologiques de plus de 4000 aéroports (messages METAR et TAF).

Les stations disponibles sont représentées par des disques jaunes et rouges sur la carte.

Passer la souris dessus pour voir le nom de la station.

Cliquer dessus pour voir les observations et prévisions météorologiques.

Pour changer de carte: cliquez sur les boutons verts avec une croix noire pour zoomer, sur le bouton vert avec un tiret pour effectuer un zoom arrière, ou sur les flèches vertes pour les cartes adjacentes.


METAR-TAF: